Time;durP1;ratioP1;P1;durP2;ratioP2;P2;SDS_P1;SDS_P2;PMS_P1;PMS_P2;Temp;Humidity;BMP_temperature;BMP_pressure;BME280_temperature;BME280_humidity;BME280_pressure;Samples;Min_cycle;Max_cycle;Signal;HPM_P1;HPM_P2
2022/01/24 00:01:38;;;;;;;8.33;4.50;;;;;;;7.13;63.05;102419.59;5132429;27;20803;-70
2022/01/24 00:04:08;;;;;;;7.73;4.27;;;;;;;7.24;63.09;102426.09;5124505;27;20217;-70
2022/01/24 00:06:38;;;;;;;8.63;4.17;;;;;;;6.83;64.08;102410.59;5131786;27;20640;-69
2022/01/24 00:09:07;;;;;;;7.57;3.60;;;;;;;7.06;63.55;102417.34;5131951;27;20207;-70
2022/01/24 00:11:43;;;;;;;9.20;3.67;;;;;;;7.17;63.40;102420.28;5129020;27;20695;-70
2022/01/24 00:17:08;;;;;;;6.13;2.87;;;;;;;7.18;63.31;102414.09;5097171;27;20270;-70
2022/01/24 00:28:01;;;;;;;5.57;2.70;;;;;;;7.01;62.99;102409.69;5131645;27;20459;-71
2022/01/24 00:30:29;;;;;;;5.37;2.80;;;;;;;7.02;63.71;102407.91;5131716;27;20271;-70
2022/01/24 00:33:03;;;;;;;5.70;3.30;;;;;;;7.15;63.07;102412.44;5131253;27;20206;-71
2022/01/24 00:35:31;;;;;;;5.97;2.93;;;;;;;7.06;63.38;102407.66;5131764;27;20205;-70
2022/01/24 00:38:02;;;;;;;6.40;3.07;;;;;;;6.86;63.94;102402.50;5129408;27;20217;-70
2022/01/24 00:40:35;;;;;;;7.50;3.27;;;;;;;7.01;63.50;102399.13;5129476;27;20414;-70
2022/01/24 00:43:16;;;;;;;6.10;3.20;;;;;;;6.77;64.26;102395.09;5129184;27;20297;-71
2022/01/24 00:45:55;;;;;;;9.17;3.17;;;;;;;6.94;63.83;102403.00;5127642;27;20250;-71
2022/01/24 00:48:36;;;;;;;6.00;3.17;;;;;;;6.83;63.98;102400.06;5128192;27;20212;-70
2022/01/24 00:54:02;;;;;;;6.13;3.43;;;;;;;6.75;64.13;102402.22;5130220;27;20271;-71
2022/01/24 00:56:33;;;;;;;6.47;3.20;;;;;;;6.79;64.12;102401.97;5130588;27;20238;-70
2022/01/24 00:59:03;;;;;;;6.57;3.80;;;;;;;6.73;64.34;102399.66;5124495;27;20233;-69
2022/01/24 01:01:31;;;;;;;9.53;3.70;;;;;;;6.72;64.52;102399.72;5123208;27;20230;-70
2022/01/24 01:04:00;;;;;;;8.07;3.57;;;;;;;6.86;63.88;102399.06;5130621;27;20214;-70
2022/01/24 01:06:28;;;;;;;6.37;3.10;;;;;;;6.91;64.04;102397.88;5125265;27;20194;-70
2022/01/24 01:20:10;;;;;;;6.27;2.90;;;;;;;6.75;64.03;102391.69;5126125;27;20643;-70
2022/01/24 01:22:39;;;;;;;6.97;3.07;;;;;;;6.62;64.56;102390.56;5109541;27;20298;-70
2022/01/24 01:25:08;;;;;;;4.33;2.80;;;;;;;6.65;64.44;102390.44;5130523;27;20558;-70
2022/01/24 01:27:41;;;;;;;6.43;3.07;;;;;;;6.56;65.04;102390.88;5131127;27;20559;-70
2022/01/24 01:30:17;;;;;;;5.73;3.03;;;;;;;6.19;65.96;102392.66;5131378;27;20297;-71
2022/01/24 01:32:58;;;;;;;5.67;2.93;;;;;;;6.42;65.18;102392.41;5130172;27;20320;-69
2022/01/24 01:35:45;;;;;;;5.10;2.80;;;;;;;6.41;65.25;102398.63;5131139;27;20212;-70
2022/01/24 01:38:40;;;;;;;5.33;3.07;;;;;;;6.51;65.07;102403.44;5128416;27;20747;-70
2022/01/24 01:52:31;;;;;;;4.70;2.70;;;;;;;6.49;65.40;102405.28;5108499;28;20222;-71
2022/01/24 01:55:13;;;;;;;5.27;2.57;;;;;;;6.52;64.96;102402.50;5108819;27;20255;-71
2022/01/24 01:57:42;;;;;;;6.77;2.90;;;;;;;6.47;65.11;102396.59;5107973;28;20616;-69
2022/01/24 02:00:13;;;;;;;5.47;2.83;;;;;;;6.24;65.83;102400.38;5128116;27;20559;-70
2022/01/24 02:02:44;;;;;;;6.03;3.33;;;;;;;5.90;67.02;102388.75;5129478;27;20285;-70
2022/01/24 02:05:13;;;;;;;7.33;3.60;;;;;;;5.89;67.24;102399.41;5111448;27;20731;-71
2022/01/24 02:07:49;;;;;;;5.03;3.03;;;;;;;5.96;67.14;102401.66;5127710;27;20208;-70
2022/01/24 02:10:19;;;;;;;5.37;2.80;;;;;;;6.26;66.04;102406.38;5127343;27;20309;-70
2022/01/24 02:12:49;;;;;;;5.87;3.43;;;;;;;6.19;66.25;102397.06;5121646;27;20648;-69
2022/01/24 02:15:25;;;;;;;6.80;3.40;;;;;;;5.78;67.06;102397.22;5128123;27;20265;-71
2022/01/24 02:18:06;;;;;;;5.93;2.97;;;;;;;5.70;67.55;102393.22;5122104;27;20335;-70
2022/01/24 02:21:04;;;;;;;6.50;3.17;;;;;;;6.15;66.37;102396.38;5129525;27;20207;-70
2022/01/24 02:23:40;;;;;;;9.17;3.90;;;;;;;6.15;65.66;102393.75;5127608;27;20654;-71
2022/01/24 02:26:14;;;;;;;7.00;3.57;;;;;;;5.72;67.70;102388.75;5125978;27;20237;-70
2022/01/24 02:31:46;;;;;;;7.83;3.97;;;;;;;5.75;67.77;102380.69;5125664;27;20240;-70
2022/01/24 02:34:38;;;;;;;7.73;3.80;;;;;;;6.04;67.00;102382.88;5126471;27;20636;-70
2022/01/24 02:37:10;;;;;;;6.00;3.47;;;;;;;6.09;66.45;102380.00;5125551;27;20826;-69
2022/01/24 02:39:47;;;;;;;7.47;3.97;;;;;;;5.73;67.44;102380.75;5130772;27;21067;-70
2022/01/24 02:51:05;;;;;;;7.97;4.30;;;;;;;5.70;67.99;102387.97;5127875;28;20258;-71
2022/01/24 02:53:35;;;;;;;6.33;2.93;;;;;;;5.66;68.01;102382.81;5121582;28;20753;-69
2022/01/24 02:56:06;;;;;;;6.87;3.23;;;;;;;5.93;67.53;102382.50;5127049;27;20263;-70
2022/01/24 02:58:36;;;;;;;6.93;3.20;;;;;;;6.11;66.75;102386.06;5133020;27;20891;-70
2022/01/24 03:01:09;;;;;;;5.40;3.23;;;;;;;6.10;66.29;102385.19;5130548;27;20666;-70
2022/01/24 03:03:40;;;;;;;6.97;3.43;;;;;;;5.80;67.84;102384.84;5131722;27;20241;-70
2022/01/24 03:06:08;;;;;;;7.23;3.70;;;;;;;5.97;67.07;102373.56;5129327;27;20488;-70
2022/01/24 03:08:38;;;;;;;7.57;3.63;;;;;;;6.10;66.84;102372.03;5128441;27;20222;-71
2022/01/24 03:11:12;;;;;;;8.77;3.47;;;;;;;5.96;67.55;102369.22;5128502;27;20265;-70
2022/01/24 03:13:39;;;;;;;5.10;3.00;;;;;;;5.78;67.97;102360.34;5131758;27;20229;-69
2022/01/24 03:16:12;;;;;;;8.20;3.50;;;;;;;5.68;68.21;102365.19;5131101;27;20201;-71
2022/01/24 03:18:40;;;;;;;7.90;3.63;;;;;;;6.01;67.22;102368.06;5132611;27;20257;-70
2022/01/24 03:21:09;;;;;;;9.03;3.90;;;;;;;5.90;67.16;102364.22;5130046;27;20212;-70
2022/01/24 03:23:38;;;;;;;7.50;2.90;;;;;;;5.98;67.11;102364.72;5125410;27;20197;-70
2022/01/24 03:26:08;;;;;;;8.53;3.07;;;;;;;5.85;67.89;102351.25;5118844;27;20351;-71
2022/01/24 03:28:37;;;;;;;6.37;3.00;;;;;;;6.14;66.79;102362.22;5112108;28;20301;-70
2022/01/24 03:31:09;;;;;;;5.37;3.00;;;;;;;6.28;66.33;102360.59;5104933;28;20468;-69
2022/01/24 03:33:37;;;;;;;5.90;3.37;;;;;;;6.17;66.44;102355.00;5109777;28;20234;-70
2022/01/24 03:36:06;;;;;;;6.10;3.27;;;;;;;6.32;66.06;102351.63;5108720;28;20713;-70
2022/01/24 03:38:34;;;;;;;4.13;2.50;;;;;;;6.36;66.09;102357.59;5108706;28;20210;-70
2022/01/24 03:41:02;;;;;;;8.67;4.30;;;;;;;6.17;66.54;102352.34;5114008;28;20210;-69
2022/01/24 03:43:33;;;;;;;6.13;3.23;;;;;;;6.23;66.85;102349.44;5106125;28;20622;-70
2022/01/24 03:48:53;;;;;;;6.37;3.30;;;;;;;6.36;65.91;102353.19;5108880;27;20211;-70
2022/01/24 03:51:23;;;;;;;6.83;2.70;;;;;;;6.31;66.28;102351.69;5110877;28;20296;-70
2022/01/24 03:53:54;;;;;;;7.47;2.97;;;;;;;6.26;66.54;102353.69;5106695;28;20484;-69
2022/01/24 03:56:26;;;;;;;5.67;2.90;;;;;;;5.82;67.53;102350.53;5101199;28;20216;-70
2022/01/24 03:58:56;;;;;;;6.17;3.20;;;;;;;5.80;68.21;102341.88;5108384;28;20286;-70
2022/01/24 04:01:23;;;;;;;6.03;2.87;;;;;;;6.17;66.77;102346.22;5111701;28;20228;-70
2022/01/24 04:03:52;;;;;;;4.90;2.87;;;;;;;6.28;66.06;102339.53;5110663;28;20210;-69
2022/01/24 04:06:24;;;;;;;5.03;3.10;;;;;;;6.27;66.06;102340.44;5112584;28;20588;-72
2022/01/24 04:08:54;;;;;;;5.80;2.90;;;;;;;6.24;65.84;102334.50;5100553;28;20286;-72
2022/01/24 04:11:22;;;;;;;4.67;2.90;;;;;;;6.31;65.75;102325.34;5112019;28;20292;-71
2022/01/24 04:13:58;;;;;;;8.97;3.00;;;;;;;5.70;67.94;102330.06;5103727;28;20284;-70
2022/01/24 04:16:31;;;;;;;5.27;3.00;;;;;;;5.97;67.36;102329.63;5107042;28;20231;-71
2022/01/24 04:19:24;;;;;;;6.67;3.30;;;;;;;6.05;66.94;102324.00;5111436;28;20210;-70
2022/01/24 04:21:50;;;;;;;7.77;3.00;;;;;;;5.98;67.12;102325.22;5112050;27;20210;-70
2022/01/24 04:24:23;;;;;;;4.70;2.83;;;;;;;5.93;67.64;102327.22;5097276;28;20228;-71
2022/01/24 04:26:51;;;;;;;7.63;3.30;;;;;;;6.10;66.62;102324.63;5104368;28;20269;-71
2022/01/24 04:29:21;;;;;;;6.63;2.97;;;;;;;6.16;66.87;102324.31;5094758;28;20231;-71
2022/01/24 04:31:52;;;;;;;6.87;3.07;;;;;;;5.98;67.73;102327.84;5100784;28;20282;-69
2022/01/24 04:34:22;;;;;;;6.30;3.40;;;;;;;6.00;67.30;102329.47;5107387;28;20257;-69
2022/01/24 04:36:50;;;;;;;6.83;3.33;;;;;;;6.08;66.98;102325.59;5112183;28;20214;-69
2022/01/24 04:39:20;;;;;;;7.77;3.13;;;;;;;6.17;66.76;102330.44;5104067;28;20224;-69
2022/01/24 04:41:51;;;;;;;7.43;3.03;;;;;;;6.19;66.80;102324.16;5106350;28;20717;-69
2022/01/24 04:44:43;;;;;;;8.87;3.50;;;;;;;6.09;67.15;102320.25;5110343;27;20293;-70
2022/01/24 04:47:19;;;;;;;8.30;3.47;;;;;;;6.17;67.13;102326.00;5112370;28;20210;-70
2022/01/24 04:52:41;;;;;;;6.33;3.40;;;;;;;5.95;67.54;102330.63;5110695;27;20589;-70
2022/01/24 04:55:10;;;;;;;5.37;3.10;;;;;;;5.79;68.10;102335.75;5109053;28;20213;-69
2022/01/24 04:57:39;;;;;;;5.47;3.37;;;;;;;5.54;68.66;102327.28;5106055;28;20616;-70
2022/01/24 05:00:11;;;;;;;6.73;3.70;;;;;;;5.62;68.63;102325.16;5103936;28;20203;-70
2022/01/24 05:02:41;;;;;;;11.60;3.53;;;;;;;5.63;68.69;102329.47;5110610;28;20237;-70
2022/01/24 05:05:17;;;;;;;5.40;3.67;;;;;;;5.89;67.69;102328.28;5111322;28;20590;-69
2022/01/24 05:07:47;;;;;;;6.80;3.53;;;;;;;5.62;68.17;102328.63;5111845;28;20701;-69
2022/01/24 05:10:22;;;;;;;8.30;4.40;;;;;;;5.44;68.79;102328.63;5103177;28;20721;-69
2022/01/24 05:21:36;;;;;;;12.03;3.93;;;;;;;5.39;68.77;102343.75;5095126;28;20294;-69
2022/01/24 05:24:04;;;;;;;7.67;3.90;;;;;;;5.37;68.99;102346.44;5108425;28;20206;-69
2022/01/24 05:26:32;;;;;;;8.70;4.30;;;;;;;5.29;69.34;102340.69;5124744;27;20297;-70
2022/01/24 05:29:00;;;;;;;7.13;3.67;;;;;;;5.13;69.37;102345.78;5127533;27;20622;-69
2022/01/24 05:31:29;;;;;;;8.57;4.60;;;;;;;5.31;69.01;102349.34;5129855;27;20237;-70
2022/01/24 05:33:58;;;;;;;8.17;4.20;;;;;;;5.01;70.23;102348.09;5129006;27;20274;-71
2022/01/24 05:36:27;;;;;;;8.87;4.13;;;;;;;4.99;70.37;102353.41;5130525;27;20288;-70
2022/01/24 05:38:56;;;;;;;10.37;4.57;;;;;;;4.90;70.75;102338.91;5126157;27;20205;-70
2022/01/24 05:41:25;;;;;;;6.83;3.80;;;;;;;5.04;70.53;102337.44;5126102;27;20209;-71
2022/01/24 05:43:53;;;;;;;5.60;3.30;;;;;;;5.13;69.82;102335.25;5128519;27;20206;-70
2022/01/24 05:46:22;;;;;;;6.47;4.23;;;;;;;5.04;70.14;102340.06;5128480;27;20596;-70
2022/01/24 05:48:52;;;;;;;6.40;4.03;;;;;;;5.16;69.46;102336.91;5129429;27;20224;-72
2022/01/24 05:51:24;;;;;;;7.73;3.93;;;;;;;4.82;69.98;102345.41;5123176;27;20209;-70
2022/01/24 05:53:53;;;;;;;9.03;4.13;;;;;;;4.64;70.62;102341.78;5120931;27;20260;-70
2022/01/24 05:56:21;;;;;;;8.33;4.03;;;;;;;4.62;70.40;102329.63;5128123;27;20669;-71
2022/01/24 05:58:50;;;;;;;9.17;4.30;;;;;;;4.76;70.35;102341.25;5127992;27;20665;-70
2022/01/24 06:01:19;;;;;;;8.13;4.03;;;;;;;4.60;70.45;102340.19;5128599;27;20201;-71
2022/01/24 06:03:48;;;;;;;10.93;4.93;;;;;;;4.70;70.45;102341.53;5130313;27;20411;-69
2022/01/24 06:06:16;;;;;;;11.03;3.83;;;;;;;4.79;69.80;102342.91;5128349;27;20209;-70
2022/01/24 06:08:46;;;;;;;8.70;3.90;;;;;;;4.57;70.57;102339.50;5127657;27;20244;-70
2022/01/24 06:11:14;;;;;;;12.23;4.03;;;;;;;4.69;69.79;102339.81;5129988;27;20257;-69
2022/01/24 06:13:45;;;;;;;10.10;4.17;;;;;;;4.61;70.33;102344.53;5129431;27;20314;-71
2022/01/24 06:16:14;;;;;;;8.53;3.63;;;;;;;4.43;70.67;102350.56;5130312;27;20607;-71
2022/01/24 06:18:43;;;;;;;7.43;3.83;;;;;;;4.57;70.14;102350.84;5127329;27;20265;-69
2022/01/24 06:21:11;;;;;;;6.97;4.07;;;;;;;4.51;70.19;102346.69;5105408;27;20210;-70
2022/01/24 06:23:40;;;;;;;8.47;4.17;;;;;;;4.53;69.90;102349.25;5117343;27;20539;-70
2022/01/24 06:26:11;;;;;;;7.47;3.57;;;;;;;4.34;71.15;102353.56;5121441;27;20327;-70
2022/01/24 06:28:39;;;;;;;7.63;4.17;;;;;;;4.48;70.50;102354.72;5129217;27;20595;-70
2022/01/24 06:31:08;;;;;;;10.10;4.03;;;;;;;4.67;70.21;102356.56;5116381;27;20433;-70
2022/01/24 06:33:36;;;;;;;7.20;4.03;;;;;;;4.50;70.61;102359.88;5123945;27;20229;-70
2022/01/24 06:36:07;;;;;;;7.27;4.40;;;;;;;4.67;69.85;102360.03;5128586;27;20246;-70
2022/01/24 06:38:35;;;;;;;10.87;4.70;;;;;;;4.38;71.00;102357.78;5132177;27;20249;-70
2022/01/24 06:41:04;;;;;;;8.30;4.97;;;;;;;4.45;70.88;102367.13;5118132;27;20234;-70
2022/01/24 06:43:34;;;;;;;10.20;5.87;;;;;;;4.47;70.81;102370.53;5127457;27;20212;-71
2022/01/24 06:46:03;;;;;;;9.00;5.33;;;;;;;4.47;71.33;102373.16;5122770;28;20635;-70
2022/01/24 06:48:31;;;;;;;11.20;5.10;;;;;;;4.58;71.02;102373.56;5116509;28;20607;-70
2022/01/24 06:51:00;;;;;;;14.13;5.80;;;;;;;4.74;70.47;102377.28;5127626;28;20221;-70
2022/01/24 06:53:30;;;;;;;12.87;6.07;;;;;;;4.59;71.21;102375.28;5125249;28;20236;-70
2022/01/24 06:55:58;;;;;;;22.00;7.10;;;;;;;4.52;70.92;102373.81;5127780;27;20296;-69
2022/01/24 06:58:28;;;;;;;14.53;7.10;;;;;;;4.65;70.52;102375.03;5126559;28;20214;-70
2022/01/24 07:00:57;;;;;;;12.27;7.57;;;;;;;4.66;70.54;102389.03;5129384;28;20265;-70
2022/01/24 07:03:26;;;;;;;19.53;8.60;;;;;;;4.53;71.00;102391.28;5129490;28;20223;-69
2022/01/24 07:05:54;;;;;;;22.33;12.17;;;;;;;4.64;70.92;102388.22;5130976;28;20205;-69
2022/01/24 07:08:22;;;;;;;18.03;12.50;;;;;;;4.57;71.34;102398.16;5117725;27;20217;-70
2022/01/24 07:10:54;;;;;;;17.63;11.73;;;;;;;4.53;71.72;102404.44;5126184;28;20583;-69
2022/01/24 07:13:23;;;;;;;19.63;11.20;;;;;;;4.44;72.13;102400.41;5125758;28;20218;-70
2022/01/24 07:15:58;;;;;;;19.17;9.23;;;;;;;4.56;72.10;102412.22;5116407;28;20680;-70
2022/01/24 07:21:14;;;;;;;18.08;10.98;;;;;;;4.90;71.08;102407.25;5128069;28;20441;-62
2022/01/24 07:23:42;;;;;;;21.10;11.57;;;;;;;5.01;69.90;102417.31;5126283;28;20209;-63
2022/01/24 07:26:10;;;;;;;18.43;9.07;;;;;;;4.77;70.59;102415.69;5115090;28;20710;-62
2022/01/24 07:28:38;;;;;;;20.30;8.87;;;;;;;4.78;70.44;102401.66;5093839;28;20211;-63
2022/01/24 07:31:06;;;;;;;17.93;8.23;;;;;;;4.92;70.08;102412.47;5103964;28;20199;-61
2022/01/24 07:33:35;;;;;;;15.93;7.93;;;;;;;4.89;70.17;102402.91;5096022;28;20584;-64
2022/01/24 07:36:03;;;;;;;17.23;8.97;;;;;;;4.70;71.14;102412.47;5104317;28;20619;-62
2022/01/24 07:38:31;;;;;;;17.13;8.37;;;;;;;4.67;71.43;102415.22;5102366;28;20211;-62
2022/01/24 07:41:02;;;;;;;26.43;9.10;;;;;;;4.79;70.50;102412.09;5107954;28;20221;-62
2022/01/24 07:43:30;;;;;;;17.63;8.43;;;;;;;4.64;71.21;102414.50;5109744;28;20202;-62
2022/01/24 07:45:58;;;;;;;17.50;8.63;;;;;;;4.80;71.11;102413.81;5110728;28;20209;-63
2022/01/24 07:48:26;;;;;;;17.53;8.20;;;;;;;4.96;70.40;102415.78;5110839;28;20292;-63
2022/01/24 07:50:56;;;;;;;16.13;8.27;;;;;;;5.04;70.13;102411.06;5105440;28;20683;-64
2022/01/24 07:53:24;;;;;;;18.57;8.20;;;;;;;4.97;70.57;102422.75;5112532;27;20217;-62
2022/01/24 07:56:13;;;;;;;21.00;9.53;;;;;;;5.00;70.60;102412.97;5100417;28;20650;-64
2022/01/24 07:58:43;;;;;;;25.67;9.67;;;;;;;5.14;70.19;102420.28;5110514;28;20216;-63
2022/01/24 08:01:11;;;;;;;22.83;9.17;;;;;;;5.18;70.07;102419.22;5108893;28;20221;-63
2022/01/24 08:03:40;;;;;;;21.20;8.93;;;;;;;5.17;70.35;102421.00;5109574;28;20687;-62
2022/01/24 08:06:10;;;;;;;29.13;13.33;;;;;;;5.16;70.13;102416.66;5109304;28;20289;-62
2022/01/24 08:08:38;;;;;;;40.97;18.03;;;;;;;5.04;70.98;102413.69;5108798;28;20205;-64
2022/01/24 08:11:06;;;;;;;20.30;8.97;;;;;;;5.22;70.61;102410.25;5112130;28;20202;-64
2022/01/24 08:13:34;;;;;;;19.30;7.40;;;;;;;5.35;69.99;102414.09;5109116;28;20494;-63
2022/01/24 08:16:01;;;;;;;16.17;7.53;;;;;;;5.43;69.92;102414.59;5109815;28;20229;-63
2022/01/24 08:18:29;;;;;;;18.90;7.37;;;;;;;5.48;69.70;102409.97;5108552;28;20202;-63
2022/01/24 08:20:57;;;;;;;15.80;7.87;;;;;;;5.66;68.85;102409.16;5098707;28;20587;-64
2022/01/24 08:23:27;;;;;;;15.57;8.40;;;;;;;5.71;68.66;102411.59;5109184;28;20219;-64
2022/01/24 08:25:55;;;;;;;19.87;8.73;;;;;;;5.72;68.72;102405.38;5108059;28;20478;-64
2022/01/24 08:28:23;;;;;;;14.50;7.93;;;;;;;5.83;68.73;102412.78;5101091;28;20295;-62
2022/01/24 08:30:52;;;;;;;16.93;7.97;;;;;;;5.78;69.02;102418.28;5108574;28;20238;-63
2022/01/24 08:33:20;;;;;;;17.17;8.27;;;;;;;5.95;68.73;102422.81;5107566;28;20201;-62
2022/01/24 08:35:48;;;;;;;14.63;7.63;;;;;;;5.88;68.90;102416.13;5099443;28;20428;-64
2022/01/24 08:38:16;;;;;;;18.97;8.43;;;;;;;5.80;69.90;102413.81;5098723;28;20298;-62
2022/01/24 08:40:47;;;;;;;20.63;9.07;;;;;;;5.70;70.46;102411.66;5106578;28;20649;-60
2022/01/24 08:43:23;;;;;;;19.37;7.70;;;;;;;5.79;70.21;102405.97;5103209;28;20217;-62
2022/01/24 08:45:53;;;;;;;16.60;8.27;;;;;;;6.05;69.53;102410.91;5098060;28;20649;-64
2022/01/24 08:48:22;;;;;;;17.90;7.57;;;;;;;6.10;69.49;102408.06;5095121;28;20585;-64
2022/01/24 08:50:54;;;;;;;13.03;7.27;;;;;;;6.27;68.88;102406.31;5107239;28;20558;-65
2022/01/24 08:53:29;;;;;;;15.13;7.13;;;;;;;6.34;68.46;102418.28;5096686;28;20317;-65
2022/01/24 08:55:59;;;;;;;14.40;7.47;;;;;;;6.43;68.46;102412.56;5107816;27;20243;-65
2022/01/24 08:58:28;;;;;;;14.77;6.87;;;;;;;6.57;68.07;102408.41;5095013;28;20287;-64
2022/01/24 09:00:56;;;;;;;12.00;6.00;;;;;;;6.42;68.20;102413.47;5096102;28;20293;-65
2022/01/24 09:03:25;;;;;;;11.83;5.73;;;;;;;6.68;67.83;102404.31;5106982;28;20217;-65
2022/01/24 09:05:54;;;;;;;10.33;5.80;;;;;;;6.79;67.01;102414.31;5104068;28;20218;-64
2022/01/24 09:08:22;;;;;;;9.60;5.47;;;;;;;6.75;67.49;102404.88;5099689;28;20239;-64
2022/01/24 09:10:52;;;;;;;9.70;4.63;;;;;;;6.84;66.97;102407.03;5105424;28;20224;-66
2022/01/24 09:13:21;;;;;;;12.07;5.03;;;;;;;7.06;66.30;102412.06;5099680;28;20287;-64
2022/01/24 09:15:49;;;;;;;10.90;4.33;;;;;;;7.39;65.75;102414.72;5111992;27;20231;-64
2022/01/24 09:18:19;;;;;;;8.17;4.20;;;;;;;7.61;64.32;102414.47;5100916;28;20252;-64
2022/01/24 09:20:49;;;;;;;9.43;4.50;;;;;;;9.93;57.95;102413.22;5106068;28;20281;-64
2022/01/24 09:23:18;;;;;;;8.57;4.30;;;;;;;12.56;50.40;102405.69;5107061;28;20219;-64
2022/01/24 09:25:46;;;;;;;9.93;3.83;;;;;;;14.66;43.70;102395.22;5110773;27;20278;-65
2022/01/24 09:28:13;;;;;;;9.23;3.53;;;;;;;14.30;44.59;102413.28;5120345;27;20205;-64
2022/01/24 09:30:42;;;;;;;7.90;4.00;;;;;;;12.92;46.88;102410.06;5126175;27;20273;-65
2022/01/24 09:33:11;;;;;;;5.77;3.60;;;;;;;12.71;47.10;102410.69;5126522;27;20293;-65
2022/01/24 09:35:40;;;;;;;6.17;3.50;;;;;;;12.59;47.35;102408.09;5128832;27;20238;-64
2022/01/24 09:38:09;;;;;;;7.23;3.53;;;;;;;13.22;46.17;102421.06;5128911;27;20205;-64
2022/01/24 09:40:36;;;;;;;7.87;3.37;;;;;;;14.58;43.22;102422.56;5128432;27;20722;-65
2022/01/24 09:43:04;;;;;;;11.17;3.47;;;;;;;11.46;49.30;102433.97;5126119;27;20219;-64
2022/01/24 09:45:32;;;;;;;6.47;3.27;;;;;;;9.38;55.33;102432.53;5124336;27;20202;-63
2022/01/24 09:48:03;;;;;;;7.47;3.47;;;;;;;8.81;57.79;102436.81;5119908;27;20300;-63
2022/01/24 09:50:31;;;;;;;13.03;3.60;;;;;;;8.43;59.56;102431.97;5126923;27;20209;-64
2022/01/24 09:52:58;;;;;;;11.37;3.70;;;;;;;8.25;60.41;102425.88;5124053;27;20276;-65
2022/01/24 09:55:26;;;;;;;8.43;3.63;;;;;;;8.18;60.53;102431.59;5122308;27;20229;-65
2022/01/24 09:57:54;;;;;;;7.57;3.77;;;;;;;7.99;61.42;102436.19;5123833;27;20214;-64
2022/01/24 10:00:24;;;;;;;6.83;3.63;;;;;;;8.01;61.63;102434.28;5119638;27;20235;-65
2022/01/24 10:02:53;;;;;;;7.13;3.70;;;;;;;8.11;61.50;102425.78;5116273;27;20221;-64
2022/01/24 10:05:43;;;;;;;8.20;4.20;;;;;;;7.92;61.95;102433.84;5126511;27;20205;-64
2022/01/24 10:08:29;;;;;;;8.77;3.77;;;;;;;7.54;63.29;102425.38;5127442;27;20205;-64
2022/01/24 10:10:59;;;;;;;9.90;5.00;;;;;;;7.99;62.14;102431.75;5120773;27;20255;-65
2022/01/24 10:16:26;;;;;;;8.07;4.50;;;;;;;7.36;63.82;102426.31;5126818;27;20221;-64
2022/01/24 10:19:09;;;;;;;6.67;3.90;;;;;;;7.49;63.62;102426.53;5132461;27;20215;-64
2022/01/24 10:22:00;;;;;;;6.37;3.73;;;;;;;7.27;63.56;102431.22;5127675;27;20273;-64
2022/01/24 10:24:32;;;;;;;7.90;4.60;;;;;;;7.22;63.54;102433.22;5128441;27;20294;-64
2022/01/24 10:27:13;;;;;;;9.27;4.00;;;;;;;7.17;63.68;102426.44;5124493;27;20764;-65
2022/01/24 10:29:47;;;;;;;6.17;3.47;;;;;;;7.07;63.85;102422.53;5116608;27;20266;-64
2022/01/24 10:32:29;;;;;;;5.67;3.47;;;;;;;7.20;64.02;102421.94;5115651;27;20727;-63
2022/01/24 10:34:57;;;;;;;7.93;3.93;;;;;;;7.19;64.21;102418.44;5119664;27;20204;-64
2022/01/24 10:37:26;;;;;;;5.40;3.90;;;;;;;7.16;63.71;102415.94;5128740;27;20258;-64
2022/01/24 10:39:58;;;;;;;10.20;4.03;;;;;;;7.06;64.08;102412.91;5129126;27;20226;-64
2022/01/24 10:42:52;;;;;;;7.00;3.80;;;;;;;7.16;63.89;102411.53;5124859;27;20246;-64
2022/01/24 10:45:25;;;;;;;7.67;3.37;;;;;;;6.95;64.72;102409.97;5128540;27;20255;-64
2022/01/24 10:47:55;;;;;;;8.17;3.90;;;;;;;7.14;64.09;102409.88;5127738;28;20211;-65
2022/01/24 10:50:27;;;;;;;8.67;3.97;;;;;;;6.88;64.90;102403.31;5127861;28;20207;-64
2022/01/24 10:52:59;;;;;;;9.37;5.27;;;;;;;7.09;63.87;102407.50;5126008;28;20253;-64
2022/01/24 10:55:29;;;;;;;10.07;5.10;;;;;;;7.12;63.91;102399.41;5129197;28;20220;-64
2022/01/24 10:57:59;;;;;;;12.00;4.70;;;;;;;6.98;64.57;102401.91;5125298;28;20264;-63
2022/01/24 11:00:29;;;;;;;7.80;3.93;;;;;;;7.02;64.30;102402.63;5126531;28;20207;-62
2022/01/24 11:03:00;;;;;;;7.47;3.43;;;;;;;7.06;64.12;102394.44;5125729;28;20592;-64
2022/01/24 11:05:30;;;;;;;6.87;3.53;;;;;;;7.08;63.91;102387.31;5117395;28;20264;-64
2022/01/24 11:08:02;;;;;;;7.37;4.20;;;;;;;7.10;64.12;102382.81;5131467;28;20689;-63
2022/01/24 11:10:33;;;;;;;11.17;4.47;;;;;;;7.06;63.66;102391.81;5116447;28;20677;-64
2022/01/24 11:13:04;;;;;;;7.03;4.30;;;;;;;7.30;63.49;102391.50;5127179;27;20211;-63
2022/01/24 11:15:34;;;;;;;16.63;11.00;;;;;;;7.36;63.15;102377.97;5127952;27;20536;-64
2022/01/24 11:18:03;;;;;;;10.70;5.63;;;;;;;7.21;63.03;102384.06;5133614;27;20232;-63
2022/01/24 11:20:33;;;;;;;10.97;4.70;;;;;;;7.37;62.64;102379.66;5132802;27;20209;-64
2022/01/24 11:23:05;;;;;;;7.40;4.37;;;;;;;7.68;62.19;102381.50;5132180;27;20247;-66
2022/01/24 11:25:34;;;;;;;9.30;4.03;;;;;;;7.68;61.88;102374.44;5129009;27;20633;-65
2022/01/24 11:28:03;;;;;;;8.03;4.33;;;;;;;7.74;61.81;102376.75;5133177;27;20247;-65
2022/01/24 11:30:37;;;;;;;8.07;4.80;;;;;;;7.55;62.03;102369.00;5120655;27;20304;-65
2022/01/24 11:33:10;;;;;;;7.90;4.00;;;;;;;7.47;62.13;102375.63;5105052;27;20275;-65
2022/01/24 11:35:43;;;;;;;8.50;4.40;;;;;;;7.38;62.49;102371.69;5111611;28;20216;-64
2022/01/24 11:38:29;;;;;;;7.53;3.90;;;;;;;7.23;62.18;102377.75;5129947;27;20299;-64
2022/01/24 11:41:00;;;;;;;9.33;4.33;;;;;;;7.22;62.95;102365.47;5130985;27;20311;-65
2022/01/24 11:43:32;;;;;;;7.03;4.00;;;;;;;7.34;63.07;102364.00;5127637;27;20211;-65
2022/01/24 11:46:05;;;;;;;11.43;4.13;;;;;;;7.14;63.18;102365.03;5120492;27;20212;-65
2022/01/24 11:48:34;;;;;;;9.37;3.90;;;;;;;7.65;62.30;102365.84;5120250;27;20239;-64
2022/01/24 11:51:06;;;;;;;10.07;4.23;;;;;;;7.65;62.22;102369.31;5131963;27;20216;-64
2022/01/24 11:53:41;;;;;;;10.90;4.73;;;;;;;7.82;62.12;102371.91;5129011;27;20215;-64
2022/01/24 11:56:25;;;;;;;8.93;4.40;;;;;;;8.30;61.15;102372.72;5125943;27;20580;-64
2022/01/24 11:59:22;;;;;;;7.47;4.47;;;;;;;7.91;60.84;102371.41;5120551;27;20280;-63
2022/01/24 12:02:06;;;;;;;7.90;4.27;;;;;;;8.06;61.20;102369.69;5130000;27;20249;-67
2022/01/24 12:04:49;;;;;;;8.03;4.50;;;;;;;7.84;60.70;102359.44;5131297;27;20742;-65
2022/01/24 12:07:19;;;;;;;8.53;4.07;;;;;;;7.99;61.11;102365.69;5130282;27;20237;-65
2022/01/24 12:09:49;;;;;;;8.63;4.27;;;;;;;8.00;61.66;102363.91;5133063;27;20212;-64
2022/01/24 12:12:41;;;;;;;10.63;4.10;;;;;;;8.01;61.56;102355.03;5122759;27;20213;-65
2022/01/24 12:15:10;;;;;;;6.70;4.03;;;;;;;8.05;60.95;102356.56;5119983;27;20379;-66
2022/01/24 12:17:49;;;;;;;12.00;4.23;;;;;;;8.07;60.76;102349.41;5129226;27;20644;-65
2022/01/24 12:20:46;;;;;;;6.80;3.23;;;;;;;8.14;60.79;102346.31;5117285;27;20613;-66
2022/01/24 12:23:37;;;;;;;8.33;3.53;;;;;;;8.28;60.19;102348.16;5121567;27;20209;-66
2022/01/24 12:26:30;;;;;;;9.33;3.93;;;;;;;8.40;59.98;102336.94;5128307;27;20602;-63
2022/01/24 12:29:02;;;;;;;6.03;3.63;;;;;;;8.30;60.44;102333.94;5131014;27;20216;-64
2022/01/24 12:31:33;;;;;;;6.67;3.37;;;;;;;8.51;60.05;102334.53;5116284;27;20638;-65
2022/01/24 12:34:09;;;;;;;8.33;3.70;;;;;;;8.40;59.95;102334.28;5128179;27;20226;-65
2022/01/24 12:36:50;;;;;;;5.60;3.07;;;;;;;8.15;60.20;102331.31;5129518;27;20264;-65
2022/01/24 12:39:23;;;;;;;7.90;3.60;;;;;;;8.41;60.21;102328.06;5130459;27;20297;-69
2022/01/24 12:41:58;;;;;;;7.23;3.57;;;;;;;8.60;59.52;102323.41;5129901;27;20317;-66
2022/01/24 12:47:19;;;;;;;9.23;3.93;;;;;;;8.27;60.03;102330.59;5087525;27;20300;-65
2022/01/24 12:49:49;;;;;;;6.93;2.97;;;;;;;8.71;59.49;102333.34;5107424;27;20284;-66
2022/01/24 12:52:21;;;;;;;9.17;3.17;;;;;;;8.85;59.31;102332.53;5124554;27;20230;-65
2022/01/24 12:54:51;;;;;;;8.67;3.77;;;;;;;8.77;59.60;102329.50;5127795;27;20233;-65
2022/01/24 12:57:29;;;;;;;4.33;2.80;;;;;;;8.66;59.35;102328.31;5127816;27;20227;-65
2022/01/24 13:00:01;;;;;;;6.20;2.80;;;;;;;8.46;59.87;102315.41;5121470;27;20359;-66
2022/01/24 13:02:30;;;;;;;5.53;3.00;;;;;;;8.18;59.91;102313.50;5125679;27;20211;-65
2022/01/24 13:05:05;;;;;;;8.10;3.20;;;;;;;8.02;60.03;102314.44;5125503;27;20306;-64